Terminal Aerodrome Forecast
Issued by NWS Wilmington, OH

Current Version | Previous Version | Graphics & Text | Print | Product List | Glossary On
Versions: 1 2 3 4 5 6 7 8 9 10 11 12 13 14 15 16 17 18 19 20 21 22 23 24 25 26 27 28
000
FTUS41 KILN 130800 AAA
TAFCVG
TAF AMD
KCVG 130859Z 1309/1412 20006KT P6SM BKN120
     FM131100 21012KT P6SM BKN120
     FM131500 22012G18KT P6SM VCSH BKN060
     FM131900 23012G20KT P6SM VCTS BKN040CB
     FM132100 25010G18KT 5SM -SHRA VCTS BKN035CB
     FM140000 27010KT P6SM VCSH BKN035
     FM140600 30006KT P6SM VCSH BKN040=

USA.gov is the U.S. government's official web portal to all federal, state and local government web resources and services.